sensor_id;sensor_type;location;lat;lon;timestamp;pressure;altitude;pressure_sealevel;temperature;humidity
16664;BME280;8445;51.270;9.434;2023-03-21T00:00:48;99624.06;;;8.83;58.33
16664;BME280;8445;51.270;9.434;2023-03-21T00:03:20;99623.94;;;8.85;58.53
16664;BME280;8445;51.270;9.434;2023-03-21T00:05:46;99622.25;;;8.84;58.42
16664;BME280;8445;51.270;9.434;2023-03-21T00:08:16;99618.66;;;8.85;58.65
16664;BME280;8445;51.270;9.434;2023-03-21T00:10:45;99621.31;;;8.85;58.54
16664;BME280;8445;51.270;9.434;2023-03-21T00:13:12;99618.66;;;8.85;58.70
16664;BME280;8445;51.270;9.434;2023-03-21T00:15:38;99616.88;;;8.85;58.15
16664;BME280;8445;51.270;9.434;2023-03-21T00:18:17;99615.06;;;8.86;58.64
16664;BME280;8445;51.270;9.434;2023-03-21T00:20:56;99611.50;;;8.87;59.10
16664;BME280;8445;51.270;9.434;2023-03-21T00:23:24;99601.13;;;8.84;58.64
16664;BME280;8445;51.270;9.434;2023-03-21T00:25:50;99603.78;;;8.84;58.73
16664;BME280;8445;51.270;9.434;2023-03-21T00:28:16;99595.03;;;8.83;59.11
16664;BME280;8445;51.270;9.434;2023-03-21T00:30:41;99598.63;;;8.82;59.21
16664;BME280;8445;51.270;9.434;2023-03-21T00:33:07;99592.50;;;8.82;59.16
16664;BME280;8445;51.270;9.434;2023-03-21T00:35:32;99593.34;;;8.82;58.86
16664;BME280;8445;51.270;9.434;2023-03-21T00:37:58;99597.56;;;8.85;58.89
16664;BME280;8445;51.270;9.434;2023-03-21T00:40:23;99599.38;;;8.84;58.75
16664;BME280;8445;51.270;9.434;2023-03-21T00:42:49;99596.84;;;8.83;58.65
16664;BME280;8445;51.270;9.434;2023-03-21T00:45:17;99589.88;;;8.82;59.07
16664;BME280;8445;51.270;9.434;2023-03-21T00:47:45;99593.34;;;8.82;58.78
16664;BME280;8445;51.270;9.434;2023-03-21T00:50:13;99587.13;;;8.83;58.69
16664;BME280;8445;51.270;9.434;2023-03-21T00:52:42;99588.94;;;8.83;59.00
16664;BME280;8445;51.270;9.434;2023-03-21T00:55:13;99580.03;;;8.84;59.14
16664;BME280;8445;51.270;9.434;2023-03-21T00:57:39;99585.13;;;8.87;58.95
16664;BME280;8445;51.270;9.434;2023-03-21T01:00:09;99583.41;;;8.86;58.99
16664;BME280;8445;51.270;9.434;2023-03-21T01:02:35;99582.47;;;8.87;58.61
16664;BME280;8445;51.270;9.434;2023-03-21T01:05:36;99580.59;;;8.89;58.88
16664;BME280;8445;51.270;9.434;2023-03-21T01:08:20;99576.44;;;8.85;58.76
16664;BME280;8445;51.270;9.434;2023-03-21T01:10:49;99577.41;;;8.84;59.22
16664;BME280;8445;51.270;9.434;2023-03-21T01:13:18;99580.03;;;8.84;59.03
16664;BME280;8445;51.270;9.434;2023-03-21T01:15:48;99578.38;;;8.83;59.10
16664;BME280;8445;51.270;9.434;2023-03-21T01:18:15;99578.38;;;8.83;59.22
16664;BME280;8445;51.270;9.434;2023-03-21T01:20:42;99571.41;;;8.82;59.23
16664;BME280;8445;51.270;9.434;2023-03-21T01:23:09;99569.47;;;8.84;59.17
16664;BME280;8445;51.270;9.434;2023-03-21T01:25:35;99571.19;;;8.85;59.29
16664;BME280;8445;51.270;9.434;2023-03-21T01:28:01;99564.13;;;8.85;59.01
16664;BME280;8445;51.270;9.434;2023-03-21T01:30:27;99571.28;;;8.83;59.80
16664;BME280;8445;51.270;9.434;2023-03-21T01:32:52;99563.50;;;8.82;59.23
16664;BME280;8445;51.270;9.434;2023-03-21T01:35:19;99567.81;;;8.83;59.32
16664;BME280;8445;51.270;9.434;2023-03-21T01:37:45;99568.78;;;8.82;59.28
16664;BME280;8445;51.270;9.434;2023-03-21T01:40:33;99563.25;;;8.85;59.81
16664;BME280;8445;51.270;9.434;2023-03-21T01:43:31;99573.94;;;8.83;59.84
16664;BME280;8445;51.270;9.434;2023-03-21T01:49:22;99561.69;;;8.82;60.44
16664;BME280;8445;51.270;9.434;2023-03-21T01:52:00;99559.03;;;8.82;59.55
16664;BME280;8445;51.270;9.434;2023-03-21T01:54:31;99552.81;;;8.83;60.07
16664;BME280;8445;51.270;9.434;2023-03-21T01:57:01;99548.38;;;8.84;59.78
16664;BME280;8445;51.270;9.434;2023-03-21T01:59:36;99546.72;;;8.83;59.68
16664;BME280;8445;51.270;9.434;2023-03-21T02:02:06;99545.97;;;8.81;59.21
16664;BME280;8445;51.270;9.434;2023-03-21T02:04:41;99548.69;;;8.79;59.45
16664;BME280;8445;51.270;9.434;2023-03-21T02:07:24;99552.28;;;8.78;59.66
16664;BME280;8445;51.270;9.434;2023-03-21T02:09:58;99535.72;;;8.76;59.74
16664;BME280;8445;51.270;9.434;2023-03-21T02:12:37;99539.22;;;8.77;60.55
16664;BME280;8445;51.270;9.434;2023-03-21T02:15:06;99545.63;;;8.72;59.87
16664;BME280;8445;51.270;9.434;2023-03-21T02:17:55;99530.84;;;8.70;60.20
16664;BME280;8445;51.270;9.434;2023-03-21T02:20:59;99535.09;;;8.72;60.27
16664;BME280;8445;51.270;9.434;2023-03-21T02:45:20;99504.97;;;8.62;60.82
16664;BME280;8445;51.270;9.434;2023-03-21T02:48:04;99513.72;;;8.63;60.43
16664;BME280;8445;51.270;9.434;2023-03-21T02:50:37;99512.91;;;8.62;60.12
16664;BME280;8445;51.270;9.434;2023-03-21T02:53:07;99519.13;;;8.61;60.76
16664;BME280;8445;51.270;9.434;2023-03-21T02:55:37;99519.84;;;8.63;60.46
16664;BME280;8445;51.270;9.434;2023-03-21T02:58:12;99526.72;;;8.66;60.46
16664;BME280;8445;51.270;9.434;2023-03-21T03:00:45;99516.91;;;8.68;60.34
16664;BME280;8445;51.270;9.434;2023-03-21T03:03:22;99517.78;;;8.68;60.25
16664;BME280;8445;51.270;9.434;2023-03-21T03:05:54;99515.88;;;8.70;60.17
16664;BME280;8445;51.270;9.434;2023-03-21T03:11:30;99514.53;;;8.78;60.77
16664;BME280;8445;51.270;9.434;2023-03-21T03:14:23;99518.94;;;8.77;61.15
16664;BME280;8445;51.270;9.434;2023-03-21T03:20:14;99509.53;;;8.73;60.99
16664;BME280;8445;51.270;9.434;2023-03-21T03:22:57;99511.34;;;8.72;61.12
16664;BME280;8445;51.270;9.434;2023-03-21T03:25:52;99505.31;;;8.70;60.96
16664;BME280;8445;51.270;9.434;2023-03-21T03:28:22;99506.34;;;8.68;60.64
16664;BME280;8445;51.270;9.434;2023-03-21T03:30:51;99504.66;;;8.67;60.43
16664;BME280;8445;51.270;9.434;2023-03-21T03:33:24;99499.38;;;8.67;60.59
16664;BME280;8445;51.270;9.434;2023-03-21T03:35:53;99498.34;;;8.69;60.58
16664;BME280;8445;51.270;9.434;2023-03-21T03:38:20;99492.03;;;8.72;60.51
16664;BME280;8445;51.270;9.434;2023-03-21T03:40:53;99483.28;;;8.71;60.63
16664;BME280;8445;51.270;9.434;2023-03-21T03:43:47;99485.91;;;8.71;61.15
16664;BME280;8445;51.270;9.434;2023-03-21T03:49:14;99484.44;;;8.67;62.99
16664;BME280;8445;51.270;9.434;2023-03-21T03:52:03;99489.69;;;8.67;61.40
16664;BME280;8445;51.270;9.434;2023-03-21T03:54:39;99487.34;;;8.63;60.62
16664;BME280;8445;51.270;9.434;2023-03-21T03:57:07;99485.88;;;8.58;60.93
16664;BME280;8445;51.270;9.434;2023-03-21T03:59:35;99483.34;;;8.57;61.03
16664;BME280;8445;51.270;9.434;2023-03-21T04:02:16;99479.97;;;8.55;60.79
16664;BME280;8445;51.270;9.434;2023-03-21T04:04:42;99485.97;;;8.57;60.89
16664;BME280;8445;51.270;9.434;2023-03-21T04:07:07;99483.34;;;8.57;61.16
16664;BME280;8445;51.270;9.434;2023-03-21T04:09:34;99487.75;;;8.56;60.89
16664;BME280;8445;51.270;9.434;2023-03-21T04:12:00;99484.50;;;8.53;61.27
16664;BME280;8445;51.270;9.434;2023-03-21T04:14:26;99484.38;;;8.54;60.78
16664;BME280;8445;51.270;9.434;2023-03-21T04:16:51;99480.28;;;8.50;61.33
16664;BME280;8445;51.270;9.434;2023-03-21T04:19:19;99485.34;;;8.53;61.39
16664;BME280;8445;51.270;9.434;2023-03-21T04:21:46;99487.13;;;8.53;61.04
16664;BME280;8445;51.270;9.434;2023-03-21T04:24:12;99482.81;;;8.52;61.22
16664;BME280;8445;51.270;9.434;2023-03-21T04:26:40;99479.97;;;8.55;61.31
16664;BME280;8445;51.270;9.434;2023-03-21T04:29:25;99482.47;;;8.56;61.45
16664;BME280;8445;51.270;9.434;2023-03-21T04:32:12;99490.19;;;8.59;60.68
16664;BME280;8445;51.270;9.434;2023-03-21T04:34:47;99482.28;;;8.59;61.31
16664;BME280;8445;51.270;9.434;2023-03-21T04:37:16;99480.50;;;8.60;61.00
16664;BME280;8445;51.270;9.434;2023-03-21T04:39:43;99477.88;;;8.60;61.35
16664;BME280;8445;51.270;9.434;2023-03-21T04:42:14;99469.22;;;8.58;61.39
16664;BME280;8445;51.270;9.434;2023-03-21T04:44:40;99476.19;;;8.59;60.98
16664;BME280;8445;51.270;9.434;2023-03-21T04:47:07;99476.19;;;8.59;60.89
16664;BME280;8445;51.270;9.434;2023-03-21T04:49:33;99474.56;;;8.56;61.43
16664;BME280;8445;51.270;9.434;2023-03-21T04:51:58;99476.19;;;8.59;61.28
16664;BME280;8445;51.270;9.434;2023-03-21T04:54:25;99470.91;;;8.59;61.22
16664;BME280;8445;51.270;9.434;2023-03-21T04:56:51;99473.34;;;8.62;60.89
16664;BME280;8445;51.270;9.434;2023-03-21T04:59:18;99464.78;;;8.58;61.23
16664;BME280;8445;51.270;9.434;2023-03-21T05:01:48;99464.97;;;8.55;61.11
16664;BME280;8445;51.270;9.434;2023-03-21T05:04:14;99465.09;;;8.54;61.23
16664;BME280;8445;51.270;9.434;2023-03-21T05:06:40;99465.09;;;8.54;61.52
16664;BME280;8445;51.270;9.434;2023-03-21T05:09:09;99460.75;;;8.53;61.49
16664;BME280;8445;51.270;9.434;2023-03-21T05:11:37;99464.34;;;8.52;61.25
16664;BME280;8445;51.270;9.434;2023-03-21T05:14:04;99474.88;;;8.52;61.78
16664;BME280;8445;51.270;9.434;2023-03-21T05:16:30;99471.31;;;8.53;61.63
16664;BME280;8445;51.270;9.434;2023-03-21T05:19:00;99472.06;;;8.55;61.55
16664;BME280;8445;51.270;9.434;2023-03-21T05:21:31;99467.59;;;8.55;61.82
16664;BME280;8445;51.270;9.434;2023-03-21T05:24:14;99467.53;;;8.57;61.80
16664;BME280;8445;51.270;9.434;2023-03-21T05:26:41;99470.16;;;8.57;61.26
16664;BME280;8445;51.270;9.434;2023-03-21T05:29:12;99472.59;;;8.60;61.54
16664;BME280;8445;51.270;9.434;2023-03-21T05:31:38;99465.44;;;8.62;61.49
16664;BME280;8445;51.270;9.434;2023-03-21T05:34:08;99466.16;;;8.64;61.53
16664;BME280;8445;51.270;9.434;2023-03-21T05:36:35;99466.16;;;8.64;61.76
16664;BME280;8445;51.270;9.434;2023-03-21T05:39:03;99470.28;;;8.68;62.12
16664;BME280;8445;51.270;9.434;2023-03-21T05:41:32;99468.50;;;8.69;61.72
16664;BME280;8445;51.270;9.434;2023-03-21T05:44:01;99471.03;;;8.70;61.37
16664;BME280;8445;51.270;9.434;2023-03-21T05:46:27;99477.69;;;8.76;61.58
16664;BME280;8445;51.270;9.434;2023-03-21T05:48:55;99472.13;;;8.81;61.56
16664;BME280;8445;51.270;9.434;2023-03-21T05:51:22;99472.63;;;8.86;61.70
16664;BME280;8445;51.270;9.434;2023-03-21T05:53:47;99473.16;;;8.91;61.86
16664;BME280;8445;51.270;9.434;2023-03-21T05:56:14;99469.69;;;9.03;62.39
16664;BME280;8445;51.270;9.434;2023-03-21T05:58:50;99475.84;;;9.17;62.05
16664;BME280;8445;51.270;9.434;2023-03-21T06:01:17;99475.09;;;9.28;61.63
16664;BME280;8445;51.270;9.434;2023-03-21T06:03:50;99473.72;;;9.35;61.93
16664;BME280;8445;51.270;9.434;2023-03-21T06:06:24;99470.84;;;9.38;61.84
16664;BME280;8445;51.270;9.434;2023-03-21T06:08:54;99473.41;;;9.40;61.74
16664;BME280;8445;51.270;9.434;2023-03-21T06:11:30;99465.25;;;9.43;61.81
16664;BME280;8445;51.270;9.434;2023-03-21T06:14:13;99466.09;;;9.43;62.21
16664;BME280;8445;51.270;9.434;2023-03-21T06:16:43;99467.47;;;9.49;61.83
16664;BME280;8445;51.270;9.434;2023-03-21T06:19:11;99468.63;;;9.58;61.78
16664;BME280;8445;51.270;9.434;2023-03-21T06:22:13;99472.63;;;9.63;61.70
16664;BME280;8445;51.270;9.434;2023-03-21T06:24:39;99466.91;;;9.70;62.13
16664;BME280;8445;51.270;9.434;2023-03-21T06:27:05;99473.09;;;9.82;62.09
16664;BME280;8445;51.270;9.434;2023-03-21T06:29:43;99463.25;;;9.97;62.01
16664;BME280;8445;51.270;9.434;2023-03-21T06:32:11;99468.59;;;10.08;61.75
16664;BME280;8445;51.270;9.434;2023-03-21T06:34:37;99466.00;;;10.19;61.75
16664;BME280;8445;51.270;9.434;2023-03-21T06:37:03;99462.69;;;10.29;61.73
16664;BME280;8445;51.270;9.434;2023-03-21T06:39:31;99474.31;;;10.39;61.94
16664;BME280;8445;51.270;9.434;2023-03-21T06:41:58;99470.34;;;10.45;61.54
16664;BME280;8445;51.270;9.434;2023-03-21T06:44:23;99471.22;;;10.45;61.73
16664;BME280;8445;51.270;9.434;2023-03-21T06:46:57;99484.00;;;10.38;61.85
16664;BME280;8445;51.270;9.434;2023-03-21T06:49:22;99481.47;;;10.37;61.87
16664;BME280;8445;51.270;9.434;2023-03-21T06:51:48;99479.78;;;10.36;61.96
16664;BME280;8445;51.270;9.434;2023-03-21T06:54:18;99488.56;;;10.36;61.66
16664;BME280;8445;51.270;9.434;2023-03-21T06:56:52;99487.09;;;10.32;61.86
16664;BME280;8445;51.270;9.434;2023-03-21T06:59:24;99485.53;;;10.30;62.00
16664;BME280;8445;51.270;9.434;2023-03-21T07:01:57;99481.78;;;10.21;62.51
16664;BME280;8445;51.270;9.434;2023-03-21T07:04:23;99492.94;;;10.24;62.54
16664;BME280;8445;51.270;9.434;2023-03-21T07:06:49;99494.50;;;10.40;62.69
16664;BME280;8445;51.270;9.434;2023-03-21T07:09:19;99497.00;;;10.66;62.65
16664;BME280;8445;51.270;9.434;2023-03-21T07:11:49;99481.22;;;10.89;62.35
16664;BME280;8445;51.270;9.434;2023-03-21T07:14:19;99485.72;;;11.11;62.57
16664;BME280;8445;51.270;9.434;2023-03-21T07:16:49;99478.84;;;11.20;62.42
16664;BME280;8445;51.270;9.434;2023-03-21T07:19:14;99475.28;;;11.32;62.41
16664;BME280;8445;51.270;9.434;2023-03-21T07:21:41;99484.53;;;11.49;62.28
16664;BME280;8445;51.270;9.434;2023-03-21T07:24:07;99480.09;;;11.73;62.16
16664;BME280;8445;51.270;9.434;2023-03-21T07:26:33;99482.38;;;11.89;62.41
16664;BME280;8445;51.270;9.434;2023-03-21T07:28:59;99480.56;;;12.12;62.43
16664;BME280;8445;51.270;9.434;2023-03-21T07:31:27;99473.75;;;12.30;62.05
16664;BME280;8445;51.270;9.434;2023-03-21T07:33:54;99475.06;;;12.36;61.82
16664;BME280;8445;51.270;9.434;2023-03-21T07:36:21;99471.56;;;12.36;61.54
16664;BME280;8445;51.270;9.434;2023-03-21T07:38:47;99470.47;;;12.38;61.55
16664;BME280;8445;51.270;9.434;2023-03-21T07:41:17;99463.09;;;12.42;61.62
16664;BME280;8445;51.270;9.434;2023-03-21T07:43:42;99461.28;;;12.42;61.64
16664;BME280;8445;51.270;9.434;2023-03-21T07:46:09;99458.25;;;12.47;61.90
16664;BME280;8445;51.270;9.434;2023-03-21T07:48:34;99459.50;;;12.64;62.01
16664;BME280;8445;51.270;9.434;2023-03-21T07:51:00;99459.63;;;12.84;61.94
16664;BME280;8445;51.270;9.434;2023-03-21T07:53:26;99463.59;;;12.89;61.21
16664;BME280;8445;51.270;9.434;2023-03-21T07:55:53;99454.53;;;12.71;61.17
16664;BME280;8445;51.270;9.434;2023-03-21T07:58:24;99461.56;;;12.60;61.04
16664;BME280;8445;51.270;9.434;2023-03-21T08:00:50;99462.47;;;12.50;60.96
16664;BME280;8445;51.270;9.434;2023-03-21T08:03:16;99459.53;;;12.32;60.81
16664;BME280;8445;51.270;9.434;2023-03-21T08:05:53;99465.34;;;12.14;61.22
16664;BME280;8445;51.270;9.434;2023-03-21T08:08:19;99463.44;;;12.05;61.33
16664;BME280;8445;51.270;9.434;2023-03-21T08:10:44;99462.34;;;12.07;61.40
16664;BME280;8445;51.270;9.434;2023-03-21T08:13:10;99463.91;;;12.21;61.52
16664;BME280;8445;51.270;9.434;2023-03-21T08:15:36;99465.97;;;12.39;61.48
16664;BME280;8445;51.270;9.434;2023-03-21T08:18:02;99463.03;;;12.53;61.57
16664;BME280;8445;51.270;9.434;2023-03-21T08:20:27;99462.03;;;12.66;61.30
16664;BME280;8445;51.270;9.434;2023-03-21T08:22:53;99462.47;;;12.71;61.15
16664;BME280;8445;51.270;9.434;2023-03-21T08:25:20;99465.66;;;12.65;60.96
16664;BME280;8445;51.270;9.434;2023-03-21T08:27:46;99462.06;;;12.54;60.86
16664;BME280;8445;51.270;9.434;2023-03-21T08:30:15;99467.63;;;12.51;60.83
16664;BME280;8445;51.270;9.434;2023-03-21T08:32:41;99463.03;;;12.53;61.14
16664;BME280;8445;51.270;9.434;2023-03-21T08:35:09;99465.91;;;12.62;61.31
16664;BME280;8445;51.270;9.434;2023-03-21T08:37:40;99464.13;;;12.83;60.80
16664;BME280;8445;51.270;9.434;2023-03-21T08:40:09;99463.13;;;13.05;61.20
16664;BME280;8445;51.270;9.434;2023-03-21T08:42:39;99459.06;;;13.32;60.96
16664;BME280;8445;51.270;9.434;2023-03-21T08:45:06;99451.41;;;13.60;61.17
16664;BME280;8445;51.270;9.434;2023-03-21T08:47:32;99456.91;;;13.88;61.29
16664;BME280;8445;51.270;9.434;2023-03-21T08:49:58;99454.59;;;14.15;61.20
16664;BME280;8445;51.270;9.434;2023-03-21T08:52:24;99455.19;;;14.38;61.05
16664;BME280;8445;51.270;9.434;2023-03-21T08:54:56;99457.72;;;14.59;60.46
16664;BME280;8445;51.270;9.434;2023-03-21T08:57:22;99454.75;;;14.62;60.71
16664;BME280;8445;51.270;9.434;2023-03-21T08:59:50;99456.31;;;14.75;60.55
16664;BME280;8445;51.270;9.434;2023-03-21T09:02:16;99456.16;;;14.86;60.91
16664;BME280;8445;51.270;9.434;2023-03-21T09:04:42;99457.81;;;15.07;60.39
16664;BME280;8445;51.270;9.434;2023-03-21T09:07:10;99453.72;;;15.22;60.49
16664;BME280;8445;51.270;9.434;2023-03-21T09:09:41;99459.06;;;15.50;60.50
16664;BME280;8445;51.270;9.434;2023-03-21T09:12:06;99455.25;;;15.81;60.38
16664;BME280;8445;51.270;9.434;2023-03-21T09:14:32;99454.13;;;16.11;60.33
16664;BME280;8445;51.270;9.434;2023-03-21T09:16:59;99455.69;;;16.32;60.30
16664;BME280;8445;51.270;9.434;2023-03-21T09:19:25;99448.72;;;16.57;59.66
16664;BME280;8445;51.270;9.434;2023-03-21T09:21:52;99448.69;;;16.75;59.26
16664;BME280;8445;51.270;9.434;2023-03-21T09:24:21;99443.50;;;16.92;59.74
16664;BME280;8445;51.270;9.434;2023-03-21T09:26:49;99444.28;;;17.11;59.89
16664;BME280;8445;51.270;9.434;2023-03-21T09:29:16;99444.94;;;17.31;60.03
16664;BME280;8445;51.270;9.434;2023-03-21T09:31:44;99441.34;;;17.57;59.78
16664;BME280;8445;51.270;9.434;2023-03-21T09:34:11;99443.63;;;17.86;59.71
16664;BME280;8445;51.270;9.434;2023-03-21T09:36:43;99442.09;;;18.18;58.83
16664;BME280;8445;51.270;9.434;2023-03-21T09:39:09;99448.25;;;18.11;58.58
16664;BME280;8445;51.270;9.434;2023-03-21T09:42:01;99442.66;;;17.96;55.69
16664;BME280;8445;51.270;9.434;2023-03-21T09:47:24;99441.81;;;17.87;55.68
16664;BME280;8445;51.270;9.434;2023-03-21T09:50:15;99439.00;;;17.54;55.71
16664;BME280;8445;51.270;9.434;2023-03-21T09:52:56;99432.50;;;17.22;53.28
16664;BME280;8445;51.270;9.434;2023-03-21T09:55:34;99431.72;;;17.03;57.72
16664;BME280;8445;51.270;9.434;2023-03-21T10:00:48;99439.97;;;16.92;58.06
16664;BME280;8445;51.270;9.434;2023-03-21T10:03:23;99432.94;;;16.90;57.64
16664;BME280;8445;51.270;9.434;2023-03-21T10:05:51;99430.72;;;17.04;57.90
16664;BME280;8445;51.270;9.434;2023-03-21T10:08:50;99440.16;;;17.16;57.43
16664;BME280;8445;51.270;9.434;2023-03-21T10:11:13;99430.47;;;17.15;56.38
16664;BME280;8445;51.270;9.434;2023-03-21T10:13:47;99433.91;;;17.08;56.48
16664;BME280;8445;51.270;9.434;2023-03-21T10:16:27;99430.19;;;17.27;56.22
16664;BME280;8445;51.270;9.434;2023-03-21T10:18:53;99427.91;;;17.40;56.89
16664;BME280;8445;51.270;9.434;2023-03-21T10:21:24;99430.06;;;17.37;56.50
16664;BME280;8445;51.270;9.434;2023-03-21T10:23:52;99425.13;;;17.50;57.39
16664;BME280;8445;51.270;9.434;2023-03-21T10:26:20;99423.50;;;17.57;57.06
16664;BME280;8445;51.270;9.434;2023-03-21T10:28:47;99428.38;;;17.70;56.85
16664;BME280;8445;51.270;9.434;2023-03-21T10:31:16;99417.88;;;17.85;56.91
16664;BME280;8445;51.270;9.434;2023-03-21T10:33:45;99420.94;;;17.99;56.75
16664;BME280;8445;51.270;9.434;2023-03-21T10:36:22;99420.13;;;18.06;56.33
16664;BME280;8445;51.270;9.434;2023-03-21T10:41:19;99413.66;;;18.17;57.17
16664;BME280;8445;51.270;9.434;2023-03-21T10:43:46;99410.47;;;18.22;57.19
16664;BME280;8445;51.270;9.434;2023-03-21T10:46:27;99418.00;;;18.35;57.02
16664;BME280;8445;51.270;9.434;2023-03-21T10:48:53;99405.28;;;18.37;56.71
16664;BME280;8445;51.270;9.434;2023-03-21T10:51:21;99407.63;;;18.32;55.80
16664;BME280;8445;51.270;9.434;2023-03-21T10:54:02;99407.13;;;18.45;55.48
16664;BME280;8445;51.270;9.434;2023-03-21T10:56:34;99401.94;;;18.51;55.47
16664;BME280;8445;51.270;9.434;2023-03-21T10:59:01;99402.28;;;18.57;55.66
16664;BME280;8445;51.270;9.434;2023-03-21T11:01:33;99399.94;;;18.62;55.38
16664;BME280;8445;51.270;9.434;2023-03-21T11:04:04;99392.91;;;18.61;54.91
16664;BME280;8445;51.270;9.434;2023-03-21T11:06:32;99401.94;;;18.43;54.39
16664;BME280;8445;51.270;9.434;2023-03-21T11:09:22;99403.53;;;17.95;52.83
16664;BME280;8445;51.270;9.434;2023-03-21T11:11:53;99399.47;;;17.82;54.53
16664;BME280;8445;51.270;9.434;2023-03-21T11:14:48;99404.97;;;17.72;54.16
16664;BME280;8445;51.270;9.434;2023-03-21T11:20:05;99402.09;;;18.17;52.49
16664;BME280;8445;51.270;9.434;2023-03-21T11:22:38;99408.28;;;18.42;54.58
16664;BME280;8445;51.270;9.434;2023-03-21T11:25:08;99408.97;;;18.19;53.84
16664;BME280;8445;51.270;9.434;2023-03-21T11:27:47;99399.47;;;17.82;50.67
16664;BME280;8445;51.270;9.434;2023-03-21T11:30:21;99406.81;;;17.63;53.91
16664;BME280;8445;51.270;9.434;2023-03-21T11:32:52;99412.19;;;17.37;52.82
16664;BME280;8445;51.270;9.434;2023-03-21T11:35:21;99403.94;;;17.22;55.01
16664;BME280;8445;51.270;9.434;2023-03-21T11:37:53;99412.63;;;17.24;54.66
16664;BME280;8445;51.270;9.434;2023-03-21T11:42:53;99410.97;;;16.97;55.01
16664;BME280;8445;51.270;9.434;2023-03-21T11:47:54;99401.84;;;17.08;54.59
16664;BME280;8445;51.270;9.434;2023-03-21T11:58:39;99392.25;;;16.70;54.29
16664;BME280;8445;51.270;9.434;2023-03-21T12:04:00;99389.56;;;16.70;54.85
16664;BME280;8445;51.270;9.434;2023-03-21T12:11:30;99387.13;;;16.59;55.46
16664;BME280;8445;51.270;9.434;2023-03-21T12:14:22;99392.66;;;16.57;55.06
16664;BME280;8445;51.270;9.434;2023-03-21T12:19:51;99378.91;;;16.08;55.35
16664;BME280;8445;51.270;9.434;2023-03-21T12:25:14;99367.72;;;15.48;55.76
16664;BME280;8445;51.270;9.434;2023-03-21T12:27:53;99370.34;;;15.30;55.77
16664;BME280;8445;51.270;9.434;2023-03-21T12:30:29;99372.50;;;15.26;56.03
16664;BME280;8445;51.270;9.434;2023-03-21T12:39:09;99352.44;;;15.50;57.09
16664;BME280;8445;51.270;9.434;2023-03-21T12:44:31;99354.38;;;15.76;56.43
16664;BME280;8445;51.270;9.434;2023-03-21T12:47:04;99342.81;;;15.85;56.26
16664;BME280;8445;51.270;9.434;2023-03-21T12:49:46;99344.22;;;15.90;56.11
16664;BME280;8445;51.270;9.434;2023-03-21T12:57:19;99342.53;;;15.61;55.74
16664;BME280;8445;51.270;9.434;2023-03-21T13:00:02;99338.38;;;15.30;56.28
16664;BME280;8445;51.270;9.434;2023-03-21T13:02:48;99330.34;;;15.12;56.18
16664;BME280;8445;51.270;9.434;2023-03-21T13:05:37;99336.03;;;14.89;56.77
16664;BME280;8445;51.270;9.434;2023-03-21T13:10:34;99325.94;;;14.83;57.13
16664;BME280;8445;51.270;9.434;2023-03-21T13:13:25;99333.34;;;14.89;56.91
16664;BME280;8445;51.270;9.434;2023-03-21T13:15:58;99327.34;;;14.87;57.42
16664;BME280;8445;51.270;9.434;2023-03-21T13:24:42;99321.50;;;14.74;58.84
16664;BME280;8445;51.270;9.434;2023-03-21T13:27:31;99325.13;;;14.73;58.46
16664;BME280;8445;51.270;9.434;2023-03-21T13:30:25;99316.28;;;14.82;58.46
16664;BME280;8445;51.270;9.434;2023-03-21T13:33:03;99311.88;;;15.01;57.61
16664;BME280;8445;51.270;9.434;2023-03-21T13:35:43;99310.44;;;15.06;59.48
16664;BME280;8445;51.270;9.434;2023-03-21T13:40:42;99307.84;;;15.24;58.21
16664;BME280;8445;51.270;9.434;2023-03-21T13:43:50;99301.19;;;15.93;57.53
16664;BME280;8445;51.270;9.434;2023-03-21T13:56:52;99280.50;;;15.87;57.94
16664;BME280;8445;51.270;9.434;2023-03-21T13:59:39;99279.53;;;15.78;58.02
16664;BME280;8445;51.270;9.434;2023-03-21T14:02:29;99281.69;;;15.74;57.39
16664;BME280;8445;51.270;9.434;2023-03-21T14:05:13;99282.81;;;15.71;57.14
16664;BME280;8445;51.270;9.434;2023-03-21T14:07:45;99281.44;;;15.49;57.25
16664;BME280;8445;51.270;9.434;2023-03-21T14:10:21;99275.06;;;15.14;57.81
16664;BME280;8445;51.270;9.434;2023-03-21T14:12:48;99266.09;;;14.87;57.45
16664;BME280;8445;51.270;9.434;2023-03-21T14:15:25;99269.09;;;14.74;58.69
16664;BME280;8445;51.270;9.434;2023-03-21T14:18:04;99261.66;;;14.68;58.24
16664;BME280;8445;51.270;9.434;2023-03-21T14:20:32;99255.09;;;14.62;58.33
16664;BME280;8445;51.270;9.434;2023-03-21T14:22:58;99258.22;;;14.48;57.79
16664;BME280;8445;51.270;9.434;2023-03-21T14:25:32;99265.81;;;14.43;57.94
16664;BME280;8445;51.270;9.434;2023-03-21T14:28:00;99265.00;;;14.32;57.46
16664;BME280;8445;51.270;9.434;2023-03-21T14:30:33;99251.03;;;14.20;58.69
16664;BME280;8445;51.270;9.434;2023-03-21T14:33:24;99257.50;;;13.98;58.11
16664;BME280;8445;51.270;9.434;2023-03-21T14:35:54;99260.59;;;13.84;58.15
16664;BME280;8445;51.270;9.434;2023-03-21T14:38:34;99252.47;;;13.75;58.50
16664;BME280;8445;51.270;9.434;2023-03-21T14:41:00;99250.50;;;13.77;58.83
16664;BME280;8445;51.270;9.434;2023-03-21T14:43:28;99251.34;;;13.68;58.48
16664;BME280;8445;51.270;9.434;2023-03-21T14:58:44;99245.97;;;13.29;59.43
16664;BME280;8445;51.270;9.434;2023-03-21T15:06:22;99231.59;;;12.81;65.41
16664;BME280;8445;51.270;9.434;2023-03-21T15:23:43;99236.88;;;12.09;60.02
16664;BME280;8445;51.270;9.434;2023-03-21T15:30:30;99225.72;;;11.94;61.03
16664;BME280;8445;51.270;9.434;2023-03-21T15:52:04;99206.28;;;11.51;61.63
16664;BME280;8445;51.270;9.434;2023-03-21T15:54:34;99204.63;;;11.50;61.69
16664;BME280;8445;51.270;9.434;2023-03-21T16:00:47;99213.53;;;11.49;63.98
16664;BME280;8445;51.270;9.434;2023-03-21T16:03:30;99227.50;;;11.51;62.06
16664;BME280;8445;51.270;9.434;2023-03-21T16:06:21;99225.31;;;11.56;62.03
16664;BME280;8445;51.270;9.434;2023-03-21T16:11:41;99226.63;;;11.50;64.47
16664;BME280;8445;51.270;9.434;2023-03-21T16:14:10;99215.50;;;11.35;62.00
16664;BME280;8445;51.270;9.434;2023-03-21T16:16:39;99216.22;;;11.37;61.90
16664;BME280;8445;51.270;9.434;2023-03-21T16:19:33;99220.28;;;11.41;63.87
16664;BME280;8445;51.270;9.434;2023-03-21T16:22:08;99215.03;;;11.30;63.49
16664;BME280;8445;51.270;9.434;2023-03-21T16:24:41;99197.72;;;11.26;62.57
16664;BME280;8445;51.270;9.434;2023-03-21T16:27:12;99194.72;;;11.19;62.54
16664;BME280;8445;51.270;9.434;2023-03-21T16:29:40;99192.47;;;11.15;62.12